sensor_id;sensor_type;location;lat;lon;timestamp;P1;durP1;ratioP1;P2;durP2;ratioP2
49812;SDS011;35706;52.100;5.056;2024-02-26T00:00:27;3.45;;;0.70;;
49812;SDS011;35706;52.100;5.056;2024-02-26T00:01:31;1.85;;;0.82;;
49812;SDS011;35706;52.100;5.056;2024-02-26T00:02:31;3.28;;;0.73;;
49812;SDS011;35706;52.100;5.056;2024-02-26T00:03:36;1.48;;;0.70;;
49812;SDS011;35706;52.100;5.056;2024-02-26T00:04:37;4.13;;;0.73;;
49812;SDS011;35706;52.100;5.056;2024-02-26T00:05:37;2.28;;;0.88;;
49812;SDS011;35706;52.100;5.056;2024-02-26T00:06:39;2.00;;;0.70;;
49812;SDS011;35706;52.100;5.056;2024-02-26T00:07:41;2.20;;;0.80;;
49812;SDS011;35706;52.100;5.056;2024-02-26T00:08:41;1.95;;;0.70;;
49812;SDS011;35706;52.100;5.056;2024-02-26T00:09:42;1.45;;;0.80;;
49812;SDS011;35706;52.100;5.056;2024-02-26T00:10:42;2.95;;;0.85;;
49812;SDS011;35706;52.100;5.056;2024-02-26T00:11:42;3.92;;;0.80;;
49812;SDS011;35706;52.100;5.056;2024-02-26T00:12:43;1.40;;;0.77;;
49812;SDS011;35706;52.100;5.056;2024-02-26T00:13:43;1.42;;;0.75;;
49812;SDS011;35706;52.100;5.056;2024-02-26T00:14:43;1.85;;;0.80;;
49812;SDS011;35706;52.100;5.056;2024-02-26T00:15:46;1.60;;;0.90;;
49812;SDS011;35706;52.100;5.056;2024-02-26T00:16:46;5.10;;;0.90;;
49812;SDS011;35706;52.100;5.056;2024-02-26T00:17:46;1.67;;;0.82;;
49812;SDS011;35706;52.100;5.056;2024-02-26T00:18:47;1.90;;;0.80;;
49812;SDS011;35706;52.100;5.056;2024-02-26T00:19:47;3.53;;;0.90;;
49812;SDS011;35706;52.100;5.056;2024-02-26T00:20:47;2.17;;;1.10;;
49812;SDS011;35706;52.100;5.056;2024-02-26T00:21:48;1.63;;;0.90;;
49812;SDS011;35706;52.100;5.056;2024-02-26T00:22:48;3.65;;;1.00;;
49812;SDS011;35706;52.100;5.056;2024-02-26T00:23:52;2.05;;;0.80;;
49812;SDS011;35706;52.100;5.056;2024-02-26T00:24:53;1.65;;;0.90;;
49812;SDS011;35706;52.100;5.056;2024-02-26T00:25:53;1.95;;;0.90;;
49812;SDS011;35706;52.100;5.056;2024-02-26T00:26:53;3.35;;;1.00;;
49812;SDS011;35706;52.100;5.056;2024-02-26T00:27:54;3.65;;;0.90;;
49812;SDS011;35706;52.100;5.056;2024-02-26T00:28:55;2.00;;;0.90;;
49812;SDS011;35706;52.100;5.056;2024-02-26T00:29:55;2.20;;;1.00;;
49812;SDS011;35706;52.100;5.056;2024-02-26T00:30:55;1.42;;;0.90;;
49812;SDS011;35706;52.100;5.056;2024-02-26T00:31:56;2.20;;;0.98;;
49812;SDS011;35706;52.100;5.056;2024-02-26T00:32:56;2.70;;;1.00;;
49812;SDS011;35706;52.100;5.056;2024-02-26T00:33:56;2.53;;;0.98;;
49812;SDS011;35706;52.100;5.056;2024-02-26T00:34:57;1.60;;;0.88;;
49812;SDS011;35706;52.100;5.056;2024-02-26T00:35:57;2.63;;;1.00;;
49812;SDS011;35706;52.100;5.056;2024-02-26T00:36:57;4.00;;;1.00;;
49812;SDS011;35706;52.100;5.056;2024-02-26T00:37:58;3.10;;;1.40;;
49812;SDS011;35706;52.100;5.056;2024-02-26T00:38:58;2.90;;;1.23;;
49812;SDS011;35706;52.100;5.056;2024-02-26T00:39:59;2.60;;;0.90;;
49812;SDS011;35706;52.100;5.056;2024-02-26T00:40:59;2.50;;;1.17;;
49812;SDS011;35706;52.100;5.056;2024-02-26T00:41:59;2.22;;;0.90;;
49812;SDS011;35706;52.100;5.056;2024-02-26T00:43:00;3.73;;;1.10;;
49812;SDS011;35706;52.100;5.056;2024-02-26T00:44:00;3.37;;;0.90;;
49812;SDS011;35706;52.100;5.056;2024-02-26T00:45:00;2.77;;;1.10;;
49812;SDS011;35706;52.100;5.056;2024-02-26T00:46:00;3.58;;;1.02;;
49812;SDS011;35706;52.100;5.056;2024-02-26T00:47:02;2.17;;;0.87;;
49812;SDS011;35706;52.100;5.056;2024-02-26T00:48:02;1.53;;;0.90;;
49812;SDS011;35706;52.100;5.056;2024-02-26T00:49:06;1.77;;;0.90;;
49812;SDS011;35706;52.100;5.056;2024-02-26T00:50:06;2.03;;;0.90;;
49812;SDS011;35706;52.100;5.056;2024-02-26T00:51:08;2.10;;;0.90;;
49812;SDS011;35706;52.100;5.056;2024-02-26T00:52:08;2.23;;;1.00;;
49812;SDS011;35706;52.100;5.056;2024-02-26T00:53:09;1.70;;;1.20;;
49812;SDS011;35706;52.100;5.056;2024-02-26T00:54:09;1.63;;;1.00;;
49812;SDS011;35706;52.100;5.056;2024-02-26T00:55:09;1.87;;;1.20;;
49812;SDS011;35706;52.100;5.056;2024-02-26T00:56:10;2.07;;;1.00;;
49812;SDS011;35706;52.100;5.056;2024-02-26T00:57:10;1.50;;;1.13;;
49812;SDS011;35706;52.100;5.056;2024-02-26T00:58:11;2.40;;;1.00;;
49812;SDS011;35706;52.100;5.056;2024-02-26T00:59:12;3.50;;;1.10;;
49812;SDS011;35706;52.100;5.056;2024-02-26T01:00:12;3.63;;;1.90;;
49812;SDS011;35706;52.100;5.056;2024-02-26T01:01:13;4.70;;;1.55;;
49812;SDS011;35706;52.100;5.056;2024-02-26T01:02:13;2.07;;;1.27;;
49812;SDS011;35706;52.100;5.056;2024-02-26T01:03:14;1.88;;;1.10;;
49812;SDS011;35706;52.100;5.056;2024-02-26T01:04:15;1.80;;;1.07;;
49812;SDS011;35706;52.100;5.056;2024-02-26T01:05:15;2.93;;;1.03;;
49812;SDS011;35706;52.100;5.056;2024-02-26T01:06:16;3.70;;;1.40;;
49812;SDS011;35706;52.100;5.056;2024-02-26T01:07:17;4.07;;;1.20;;
49812;SDS011;35706;52.100;5.056;2024-02-26T01:08:17;2.23;;;1.30;;
49812;SDS011;35706;52.100;5.056;2024-02-26T01:09:17;3.17;;;1.00;;
49812;SDS011;35706;52.100;5.056;2024-02-26T01:10:18;6.67;;;1.30;;
49812;SDS011;35706;52.100;5.056;2024-02-26T01:11:19;1.87;;;1.30;;
49812;SDS011;35706;52.100;5.056;2024-02-26T01:12:19;3.10;;;1.43;;
49812;SDS011;35706;52.100;5.056;2024-02-26T01:13:19;2.15;;;1.10;;
49812;SDS011;35706;52.100;5.056;2024-02-26T01:14:20;1.67;;;1.30;;
49812;SDS011;35706;52.100;5.056;2024-02-26T01:15:20;4.53;;;1.43;;
49812;SDS011;35706;52.100;5.056;2024-02-26T01:16:23;1.60;;;1.17;;
49812;SDS011;35706;52.100;5.056;2024-02-26T01:17:24;3.22;;;1.10;;
49812;SDS011;35706;52.100;5.056;2024-02-26T01:18:24;2.17;;;1.23;;
49812;SDS011;35706;52.100;5.056;2024-02-26T01:19:24;2.22;;;1.30;;
49812;SDS011;35706;52.100;5.056;2024-02-26T01:20:24;2.83;;;1.20;;
49812;SDS011;35706;52.100;5.056;2024-02-26T01:21:25;2.10;;;1.50;;
49812;SDS011;35706;52.100;5.056;2024-02-26T01:22:29;2.97;;;1.40;;
49812;SDS011;35706;52.100;5.056;2024-02-26T01:23:29;2.20;;;1.43;;
49812;SDS011;35706;52.100;5.056;2024-02-26T01:24:29;4.83;;;1.37;;
49812;SDS011;35706;52.100;5.056;2024-02-26T01:25:29;1.60;;;1.17;;
49812;SDS011;35706;52.100;5.056;2024-02-26T01:26:30;2.30;;;1.27;;
49812;SDS011;35706;52.100;5.056;2024-02-26T01:27:31;3.57;;;1.37;;
49812;SDS011;35706;52.100;5.056;2024-02-26T01:28:31;2.28;;;1.75;;
49812;SDS011;35706;52.100;5.056;2024-02-26T01:29:31;2.63;;;1.37;;
49812;SDS011;35706;52.100;5.056;2024-02-26T01:30:32;2.67;;;1.03;;
49812;SDS011;35706;52.100;5.056;2024-02-26T01:31:32;2.42;;;1.40;;
49812;SDS011;35706;52.100;5.056;2024-02-26T01:32:32;1.90;;;1.47;;
49812;SDS011;35706;52.100;5.056;2024-02-26T01:33:32;1.97;;;1.77;;
49812;SDS011;35706;52.100;5.056;2024-02-26T01:34:33;3.95;;;1.45;;
49812;SDS011;35706;52.100;5.056;2024-02-26T01:35:33;3.33;;;1.47;;
49812;SDS011;35706;52.100;5.056;2024-02-26T01:36:34;2.53;;;1.40;;
49812;SDS011;35706;52.100;5.056;2024-02-26T01:37:34;5.20;;;1.13;;
49812;SDS011;35706;52.100;5.056;2024-02-26T01:38:34;3.03;;;1.83;;
49812;SDS011;35706;52.100;5.056;2024-02-26T01:39:35;1.97;;;1.77;;
49812;SDS011;35706;52.100;5.056;2024-02-26T01:40:35;2.20;;;1.47;;
49812;SDS011;35706;52.100;5.056;2024-02-26T01:41:36;2.77;;;1.77;;
49812;SDS011;35706;52.100;5.056;2024-02-26T01:42:39;3.23;;;1.63;;
49812;SDS011;35706;52.100;5.056;2024-02-26T01:43:41;5.53;;;1.50;;
49812;SDS011;35706;52.100;5.056;2024-02-26T01:44:41;2.22;;;1.55;;
49812;SDS011;35706;52.100;5.056;2024-02-26T01:45:42;2.07;;;1.17;;
49812;SDS011;35706;52.100;5.056;2024-02-26T01:46:42;3.00;;;1.40;;
49812;SDS011;35706;52.100;5.056;2024-02-26T01:47:43;2.13;;;1.50;;
49812;SDS011;35706;52.100;5.056;2024-02-26T01:48:43;4.37;;;1.73;;
49812;SDS011;35706;52.100;5.056;2024-02-26T01:49:45;3.17;;;1.57;;
49812;SDS011;35706;52.100;5.056;2024-02-26T01:50:46;3.20;;;1.37;;
49812;SDS011;35706;52.100;5.056;2024-02-26T01:51:46;1.67;;;1.23;;
49812;SDS011;35706;52.100;5.056;2024-02-26T01:52:47;4.20;;;1.47;;
49812;SDS011;35706;52.100;5.056;2024-02-26T01:53:49;3.50;;;1.60;;
49812;SDS011;35706;52.100;5.056;2024-02-26T01:54:49;2.03;;;1.83;;
49812;SDS011;35706;52.100;5.056;2024-02-26T01:55:50;2.47;;;1.93;;
49812;SDS011;35706;52.100;5.056;2024-02-26T01:56:50;4.53;;;1.47;;
49812;SDS011;35706;52.100;5.056;2024-02-26T01:57:51;3.72;;;1.85;;
49812;SDS011;35706;52.100;5.056;2024-02-26T01:58:52;1.70;;;1.53;;
49812;SDS011;35706;52.100;5.056;2024-02-26T01:59:53;1.60;;;1.50;;
49812;SDS011;35706;52.100;5.056;2024-02-26T02:00:53;2.60;;;1.40;;
49812;SDS011;35706;52.100;5.056;2024-02-26T02:01:55;4.70;;;1.33;;
49812;SDS011;35706;52.100;5.056;2024-02-26T02:02:57;2.47;;;1.67;;
49812;SDS011;35706;52.100;5.056;2024-02-26T02:03:58;2.23;;;1.47;;
49812;SDS011;35706;52.100;5.056;2024-02-26T02:04:59;2.37;;;2.03;;
49812;SDS011;35706;52.100;5.056;2024-02-26T02:06:01;2.50;;;1.33;;
49812;SDS011;35706;52.100;5.056;2024-02-26T02:07:02;2.10;;;1.47;;
49812;SDS011;35706;52.100;5.056;2024-02-26T02:08:03;2.40;;;1.60;;
49812;SDS011;35706;52.100;5.056;2024-02-26T02:09:05;8.43;;;1.70;;
49812;SDS011;35706;52.100;5.056;2024-02-26T02:10:07;4.90;;;1.80;;
49812;SDS011;35706;52.100;5.056;2024-02-26T02:11:08;2.43;;;1.70;;
49812;SDS011;35706;52.100;5.056;2024-02-26T02:12:11;3.22;;;1.60;;
49812;SDS011;35706;52.100;5.056;2024-02-26T02:13:11;2.33;;;1.50;;
49812;SDS011;35706;52.100;5.056;2024-02-26T02:14:12;3.20;;;2.00;;
49812;SDS011;35706;52.100;5.056;2024-02-26T02:15:12;2.20;;;1.87;;
49812;SDS011;35706;52.100;5.056;2024-02-26T02:16:12;2.93;;;1.40;;
49812;SDS011;35706;52.100;5.056;2024-02-26T02:17:13;3.88;;;1.83;;
49812;SDS011;35706;52.100;5.056;2024-02-26T02:18:14;3.67;;;1.45;;
49812;SDS011;35706;52.100;5.056;2024-02-26T02:19:14;2.37;;;1.87;;
49812;SDS011;35706;52.100;5.056;2024-02-26T02:20:15;2.43;;;1.37;;
49812;SDS011;35706;52.100;5.056;2024-02-26T02:21:17;2.87;;;1.90;;
49812;SDS011;35706;52.100;5.056;2024-02-26T02:22:18;4.87;;;1.47;;
49812;SDS011;35706;52.100;5.056;2024-02-26T02:23:18;1.93;;;1.70;;
49812;SDS011;35706;52.100;5.056;2024-02-26T02:24:18;2.47;;;1.43;;
49812;SDS011;35706;52.100;5.056;2024-02-26T02:25:19;3.20;;;1.33;;
49812;SDS011;35706;52.100;5.056;2024-02-26T02:26:19;3.10;;;1.60;;
49812;SDS011;35706;52.100;5.056;2024-02-26T02:27:20;2.80;;;1.53;;
49812;SDS011;35706;52.100;5.056;2024-02-26T02:28:21;2.67;;;1.40;;
49812;SDS011;35706;52.100;5.056;2024-02-26T02:29:22;2.17;;;1.42;;
49812;SDS011;35706;52.100;5.056;2024-02-26T02:30:24;4.50;;;1.20;;
49812;SDS011;35706;52.100;5.056;2024-02-26T02:31:26;3.70;;;1.60;;
49812;SDS011;35706;52.100;5.056;2024-02-26T02:32:27;3.70;;;1.60;;
49812;SDS011;35706;52.100;5.056;2024-02-26T02:33:29;3.03;;;1.52;;
49812;SDS011;35706;52.100;5.056;2024-02-26T02:34:29;2.93;;;1.80;;
49812;SDS011;35706;52.100;5.056;2024-02-26T02:35:31;4.00;;;1.57;;
49812;SDS011;35706;52.100;5.056;2024-02-26T02:36:32;4.57;;;1.50;;
49812;SDS011;35706;52.100;5.056;2024-02-26T02:37:32;2.53;;;1.70;;
49812;SDS011;35706;52.100;5.056;2024-02-26T02:38:32;2.43;;;1.67;;
49812;SDS011;35706;52.100;5.056;2024-02-26T02:39:34;2.17;;;1.43;;
49812;SDS011;35706;52.100;5.056;2024-02-26T02:40:34;2.00;;;1.67;;
49812;SDS011;35706;52.100;5.056;2024-02-26T02:41:34;3.33;;;1.60;;
49812;SDS011;35706;52.100;5.056;2024-02-26T02:42:35;2.23;;;1.73;;
49812;SDS011;35706;52.100;5.056;2024-02-26T02:43:35;2.70;;;1.80;;
49812;SDS011;35706;52.100;5.056;2024-02-26T02:44:35;4.30;;;2.03;;
49812;SDS011;35706;52.100;5.056;2024-02-26T02:45:36;5.37;;;1.70;;
49812;SDS011;35706;52.100;5.056;2024-02-26T02:46:36;3.00;;;1.47;;
49812;SDS011;35706;52.100;5.056;2024-02-26T02:47:37;2.40;;;1.50;;
49812;SDS011;35706;52.100;5.056;2024-02-26T02:48:41;3.90;;;1.90;;
49812;SDS011;35706;52.100;5.056;2024-02-26T02:49:42;3.10;;;1.87;;
49812;SDS011;35706;52.100;5.056;2024-02-26T02:50:42;3.93;;;1.37;;
49812;SDS011;35706;52.100;5.056;2024-02-26T02:51:43;3.93;;;1.97;;
49812;SDS011;35706;52.100;5.056;2024-02-26T02:52:43;3.63;;;1.63;;
49812;SDS011;35706;52.100;5.056;2024-02-26T02:53:43;2.83;;;1.93;;
49812;SDS011;35706;52.100;5.056;2024-02-26T02:54:43;2.30;;;1.87;;
49812;SDS011;35706;52.100;5.056;2024-02-26T02:55:44;5.07;;;2.27;;
49812;SDS011;35706;52.100;5.056;2024-02-26T02:56:44;2.47;;;1.67;;
49812;SDS011;35706;52.100;5.056;2024-02-26T02:57:44;2.70;;;1.70;;
49812;SDS011;35706;52.100;5.056;2024-02-26T02:58:45;3.07;;;1.57;;
49812;SDS011;35706;52.100;5.056;2024-02-26T02:59:46;4.23;;;2.17;;
49812;SDS011;35706;52.100;5.056;2024-02-26T03:00:46;3.10;;;2.03;;
49812;SDS011;35706;52.100;5.056;2024-02-26T03:01:47;3.27;;;1.87;;
49812;SDS011;35706;52.100;5.056;2024-02-26T03:02:47;3.30;;;1.97;;
49812;SDS011;35706;52.100;5.056;2024-02-26T03:03:47;2.33;;;1.77;;
49812;SDS011;35706;52.100;5.056;2024-02-26T03:04:48;3.57;;;1.87;;
49812;SDS011;35706;52.100;5.056;2024-02-26T03:05:48;2.57;;;1.70;;
49812;SDS011;35706;52.100;5.056;2024-02-26T03:06:48;3.37;;;2.23;;
49812;SDS011;35706;52.100;5.056;2024-02-26T03:07:49;2.70;;;2.30;;
49812;SDS011;35706;52.100;5.056;2024-02-26T03:08:49;3.60;;;2.20;;
49812;SDS011;35706;52.100;5.056;2024-02-26T03:09:49;3.07;;;2.27;;
49812;SDS011;35706;52.100;5.056;2024-02-26T03:10:49;4.97;;;2.20;;
49812;SDS011;35706;52.100;5.056;2024-02-26T03:11:50;4.13;;;2.07;;
49812;SDS011;35706;52.100;5.056;2024-02-26T03:12:50;4.07;;;2.50;;
49812;SDS011;35706;52.100;5.056;2024-02-26T03:13:51;2.97;;;2.20;;
49812;SDS011;35706;52.100;5.056;2024-02-26T03:14:51;2.90;;;2.30;;
49812;SDS011;35706;52.100;5.056;2024-02-26T03:15:52;3.63;;;2.47;;
49812;SDS011;35706;52.100;5.056;2024-02-26T03:16:53;4.13;;;2.53;;
49812;SDS011;35706;52.100;5.056;2024-02-26T03:17:54;4.13;;;2.17;;
49812;SDS011;35706;52.100;5.056;2024-02-26T03:18:55;2.67;;;2.43;;
49812;SDS011;35706;52.100;5.056;2024-02-26T03:19:55;4.77;;;2.70;;
49812;SDS011;35706;52.100;5.056;2024-02-26T03:20:55;6.00;;;3.10;;
49812;SDS011;35706;52.100;5.056;2024-02-26T03:21:56;3.03;;;2.73;;
49812;SDS011;35706;52.100;5.056;2024-02-26T03:22:56;6.37;;;3.33;;
49812;SDS011;35706;52.100;5.056;2024-02-26T03:23:56;4.20;;;3.13;;
49812;SDS011;35706;52.100;5.056;2024-02-26T03:24:57;3.00;;;2.70;;
49812;SDS011;35706;52.100;5.056;2024-02-26T03:25:57;3.50;;;2.57;;
49812;SDS011;35706;52.100;5.056;2024-02-26T03:26:58;3.73;;;2.97;;
49812;SDS011;35706;52.100;5.056;2024-02-26T03:27:58;3.67;;;2.67;;
49812;SDS011;35706;52.100;5.056;2024-02-26T03:28:58;3.90;;;3.47;;
49812;SDS011;35706;52.100;5.056;2024-02-26T03:29:59;4.37;;;2.93;;
49812;SDS011;35706;52.100;5.056;2024-02-26T03:31:00;3.47;;;3.17;;
49812;SDS011;35706;52.100;5.056;2024-02-26T03:32:02;9.60;;;3.00;;
49812;SDS011;35706;52.100;5.056;2024-02-26T03:33:02;4.95;;;2.95;;
49812;SDS011;35706;52.100;5.056;2024-02-26T03:34:03;4.00;;;3.37;;
49812;SDS011;35706;52.100;5.056;2024-02-26T03:35:03;4.17;;;3.57;;
49812;SDS011;35706;52.100;5.056;2024-02-26T03:36:04;4.43;;;3.67;;
49812;SDS011;35706;52.100;5.056;2024-02-26T03:37:05;6.60;;;3.90;;
49812;SDS011;35706;52.100;5.056;2024-02-26T03:38:06;5.33;;;3.43;;
49812;SDS011;35706;52.100;5.056;2024-02-26T03:39:06;5.07;;;3.53;;
49812;SDS011;35706;52.100;5.056;2024-02-26T03:40:07;5.20;;;3.53;;
49812;SDS011;35706;52.100;5.056;2024-02-26T03:41:08;4.23;;;3.03;;
49812;SDS011;35706;52.100;5.056;2024-02-26T03:42:08;5.87;;;4.17;;
49812;SDS011;35706;52.100;5.056;2024-02-26T03:43:08;5.27;;;3.90;;
49812;SDS011;35706;52.100;5.056;2024-02-26T03:44:09;5.13;;;3.97;;
49812;SDS011;35706;52.100;5.056;2024-02-26T03:45:09;8.87;;;4.40;;
49812;SDS011;35706;52.100;5.056;2024-02-26T03:46:10;5.47;;;4.40;;
49812;SDS011;35706;52.100;5.056;2024-02-26T03:47:11;7.10;;;3.80;;
49812;SDS011;35706;52.100;5.056;2024-02-26T03:48:11;7.20;;;4.60;;
49812;SDS011;35706;52.100;5.056;2024-02-26T03:49:12;8.03;;;4.63;;
49812;SDS011;35706;52.100;5.056;2024-02-26T03:50:13;6.43;;;3.80;;
49812;SDS011;35706;52.100;5.056;2024-02-26T03:51:13;7.07;;;4.23;;
49812;SDS011;35706;52.100;5.056;2024-02-26T03:52:14;5.13;;;4.13;;
49812;SDS011;35706;52.100;5.056;2024-02-26T03:53:15;5.47;;;4.07;;
49812;SDS011;35706;52.100;5.056;2024-02-26T03:54:15;4.97;;;4.43;;
49812;SDS011;35706;52.100;5.056;2024-02-26T03:55:15;5.90;;;3.97;;
49812;SDS011;35706;52.100;5.056;2024-02-26T03:56:18;6.50;;;3.97;;
49812;SDS011;35706;52.100;5.056;2024-02-26T03:57:18;6.03;;;4.37;;
49812;SDS011;35706;52.100;5.056;2024-02-26T03:58:18;6.27;;;4.20;;
49812;SDS011;35706;52.100;5.056;2024-02-26T03:59:19;8.40;;;5.00;;
49812;SDS011;35706;52.100;5.056;2024-02-26T04:00:20;5.73;;;4.50;;
49812;SDS011;35706;52.100;5.056;2024-02-26T04:01:20;5.03;;;3.87;;
49812;SDS011;35706;52.100;5.056;2024-02-26T04:02:21;6.07;;;4.90;;
49812;SDS011;35706;52.100;5.056;2024-02-26T04:03:22;6.63;;;4.13;;
49812;SDS011;35706;52.100;5.056;2024-02-26T04:04:23;5.27;;;4.73;;
49812;SDS011;35706;52.100;5.056;2024-02-26T04:05:23;5.97;;;4.90;;
49812;SDS011;35706;52.100;5.056;2024-02-26T04:06:23;6.93;;;4.53;;
49812;SDS011;35706;52.100;5.056;2024-02-26T04:07:24;7.73;;;5.23;;
49812;SDS011;35706;52.100;5.056;2024-02-26T04:08:24;6.73;;;4.80;;
49812;SDS011;35706;52.100;5.056;2024-02-26T04:09:24;9.27;;;4.87;;
49812;SDS011;35706;52.100;5.056;2024-02-26T04:10:25;6.23;;;5.23;;
49812;SDS011;35706;52.100;5.056;2024-02-26T04:11:25;6.83;;;5.27;;
49812;SDS011;35706;52.100;5.056;2024-02-26T04:12:25;8.53;;;4.30;;
49812;SDS011;35706;52.100;5.056;2024-02-26T04:13:26;6.33;;;5.63;;
49812;SDS011;35706;52.100;5.056;2024-02-26T04:14:26;6.33;;;5.17;;
49812;SDS011;35706;52.100;5.056;2024-02-26T04:15:26;6.27;;;5.30;;
49812;SDS011;35706;52.100;5.056;2024-02-26T04:16:27;6.80;;;3.97;;
49812;SDS011;35706;52.100;5.056;2024-02-26T04:17:27;6.43;;;5.20;;
49812;SDS011;35706;52.100;5.056;2024-02-26T04:18:28;8.43;;;4.80;;
49812;SDS011;35706;52.100;5.056;2024-02-26T04:19:28;9.27;;;5.13;;
49812;SDS011;35706;52.100;5.056;2024-02-26T04:20:28;6.97;;;5.50;;
49812;SDS011;35706;52.100;5.056;2024-02-26T04:21:28;8.07;;;5.50;;
49812;SDS011;35706;52.100;5.056;2024-02-26T04:22:29;9.13;;;5.23;;
49812;SDS011;35706;52.100;5.056;2024-02-26T04:23:29;8.20;;;5.07;;
49812;SDS011;35706;52.100;5.056;2024-02-26T04:24:29;6.73;;;4.73;;
49812;SDS011;35706;52.100;5.056;2024-02-26T04:25:30;6.50;;;5.60;;
49812;SDS011;35706;52.100;5.056;2024-02-26T04:26:30;8.93;;;5.40;;
49812;SDS011;35706;52.100;5.056;2024-02-26T04:27:30;8.20;;;6.13;;
49812;SDS011;35706;52.100;5.056;2024-02-26T04:28:31;7.43;;;5.23;;
49812;SDS011;35706;52.100;5.056;2024-02-26T04:29:31;6.80;;;5.27;;
49812;SDS011;35706;52.100;5.056;2024-02-26T04:30:31;7.70;;;5.60;;
49812;SDS011;35706;52.100;5.056;2024-02-26T04:31:32;6.53;;;5.50;;
49812;SDS011;35706;52.100;5.056;2024-02-26T04:32:33;8.83;;;6.23;;
49812;SDS011;35706;52.100;5.056;2024-02-26T04:33:34;8.23;;;6.03;;
49812;SDS011;35706;52.100;5.056;2024-02-26T04:34:35;7.67;;;5.70;;
49812;SDS011;35706;52.100;5.056;2024-02-26T04:35:35;6.93;;;5.80;;
49812;SDS011;35706;52.100;5.056;2024-02-26T04:36:35;7.50;;;5.57;;
49812;SDS011;35706;52.100;5.056;2024-02-26T04:37:35;9.67;;;5.77;;
49812;SDS011;35706;52.100;5.056;2024-02-26T04:38:36;5.93;;;4.67;;
49812;SDS011;35706;52.100;5.056;2024-02-26T04:39:36;8.53;;;6.20;;
49812;SDS011;35706;52.100;5.056;2024-02-26T04:40:36;9.17;;;6.43;;
49812;SDS011;35706;52.100;5.056;2024-02-26T04:41:37;9.53;;;6.43;;
49812;SDS011;35706;52.100;5.056;2024-02-26T04:42:37;10.53;;;6.60;;
49812;SDS011;35706;52.100;5.056;2024-02-26T04:43:37;9.20;;;6.30;;
49812;SDS011;35706;52.100;5.056;2024-02-26T04:44:44;9.70;;;6.27;;
49812;SDS011;35706;52.100;5.056;2024-02-26T04:45:44;9.37;;;5.97;;
49812;SDS011;35706;52.100;5.056;2024-02-26T04:46:44;10.70;;;6.50;;
49812;SDS011;35706;52.100;5.056;2024-02-26T04:47:45;8.48;;;5.60;;
49812;SDS011;35706;52.100;5.056;2024-02-26T04:48:47;9.73;;;6.43;;
49812;SDS011;35706;52.100;5.056;2024-02-26T04:49:48;8.93;;;6.37;;
49812;SDS011;35706;52.100;5.056;2024-02-26T04:50:49;9.17;;;5.83;;
49812;SDS011;35706;52.100;5.056;2024-02-26T04:51:50;11.70;;;6.30;;
49812;SDS011;35706;52.100;5.056;2024-02-26T04:52:50;8.47;;;6.50;;
49812;SDS011;35706;52.100;5.056;2024-02-26T04:53:50;8.82;;;6.75;;
49812;SDS011;35706;52.100;5.056;2024-02-26T04:54:53;10.83;;;7.07;;
49812;SDS011;35706;52.100;5.056;2024-02-26T04:55:54;8.73;;;6.37;;
49812;SDS011;35706;52.100;5.056;2024-02-26T04:56:55;7.70;;;6.20;;
49812;SDS011;35706;52.100;5.056;2024-02-26T04:57:55;9.80;;;6.27;;
49812;SDS011;35706;52.100;5.056;2024-02-26T04:58:55;9.77;;;6.60;;
49812;SDS011;35706;52.100;5.056;2024-02-26T04:59:55;8.63;;;6.40;;
49812;SDS011;35706;52.100;5.056;2024-02-26T05:00:56;9.33;;;6.83;;
49812;SDS011;35706;52.100;5.056;2024-02-26T05:01:56;12.30;;;7.20;;
49812;SDS011;35706;52.100;5.056;2024-02-26T05:02:56;9.40;;;6.40;;
49812;SDS011;35706;52.100;5.056;2024-02-26T05:03:57;13.50;;;7.28;;
49812;SDS011;35706;52.100;5.056;2024-02-26T05:04:57;9.30;;;6.50;;
49812;SDS011;35706;52.100;5.056;2024-02-26T05:05:57;8.30;;;6.20;;
49812;SDS011;35706;52.100;5.056;2024-02-26T05:06:58;8.40;;;5.53;;
49812;SDS011;35706;52.100;5.056;2024-02-26T05:07:58;8.17;;;6.37;;
49812;SDS011;35706;52.100;5.056;2024-02-26T05:08:58;10.53;;;6.63;;
49812;SDS011;35706;52.100;5.056;2024-02-26T05:09:59;9.60;;;6.93;;
49812;SDS011;35706;52.100;5.056;2024-02-26T05:10:59;8.23;;;6.43;;
49812;SDS011;35706;52.100;5.056;2024-02-26T05:12:00;9.73;;;7.40;;
49812;SDS011;35706;52.100;5.056;2024-02-26T05:13:00;10.30;;;6.87;;
49812;SDS011;35706;52.100;5.056;2024-02-26T05:14:01;10.60;;;6.97;;
49812;SDS011;35706;52.100;5.056;2024-02-26T05:15:02;10.57;;;7.00;;
49812;SDS011;35706;52.100;5.056;2024-02-26T05:16:03;8.53;;;6.63;;
49812;SDS011;35706;52.100;5.056;2024-02-26T05:17:04;8.50;;;6.37;;
49812;SDS011;35706;52.100;5.056;2024-02-26T05:18:06;9.43;;;7.10;;
49812;SDS011;35706;52.100;5.056;2024-02-26T05:19:07;9.63;;;6.17;;
49812;SDS011;35706;52.100;5.056;2024-02-26T05:20:08;8.97;;;6.40;;
49812;SDS011;35706;52.100;5.056;2024-02-26T05:21:08;10.17;;;6.53;;
49812;SDS011;35706;52.100;5.056;2024-02-26T05:22:08;8.17;;;6.43;;
49812;SDS011;35706;52.100;5.056;2024-02-26T05:23:09;11.30;;;7.10;;
49812;SDS011;35706;52.100;5.056;2024-02-26T05:24:09;10.20;;;6.17;;
49812;SDS011;35706;52.100;5.056;2024-02-26T05:25:10;9.80;;;6.90;;
49812;SDS011;35706;52.100;5.056;2024-02-26T05:26:10;10.77;;;7.00;;
49812;SDS011;35706;52.100;5.056;2024-02-26T05:27:11;9.77;;;6.60;;
49812;SDS011;35706;52.100;5.056;2024-02-26T05:28:12;8.87;;;6.60;;
49812;SDS011;35706;52.100;5.056;2024-02-26T05:29:12;13.63;;;6.53;;
49812;SDS011;35706;52.100;5.056;2024-02-26T05:30:13;9.50;;;6.20;;
49812;SDS011;35706;52.100;5.056;2024-02-26T05:31:13;8.47;;;6.70;;
49812;SDS011;35706;52.100;5.056;2024-02-26T05:32:14;9.67;;;6.47;;
49812;SDS011;35706;52.100;5.056;2024-02-26T05:33:14;9.20;;;6.93;;
49812;SDS011;35706;52.100;5.056;2024-02-26T05:34:15;12.30;;;7.33;;
49812;SDS011;35706;52.100;5.056;2024-02-26T05:35:15;10.60;;;6.93;;
49812;SDS011;35706;52.100;5.056;2024-02-26T05:36:19;9.63;;;7.10;;
49812;SDS011;35706;52.100;5.056;2024-02-26T05:37:21;9.13;;;6.27;;
49812;SDS011;35706;52.100;5.056;2024-02-26T05:38:21;13.30;;;7.03;;
49812;SDS011;35706;52.100;5.056;2024-02-26T05:39:21;9.37;;;6.77;;
49812;SDS011;35706;52.100;5.056;2024-02-26T05:40:22;11.13;;;6.63;;
49812;SDS011;35706;52.100;5.056;2024-02-26T05:41:22;11.63;;;6.70;;
49812;SDS011;35706;52.100;5.056;2024-02-26T05:42:26;11.37;;;7.20;;
49812;SDS011;35706;52.100;5.056;2024-02-26T05:43:27;11.57;;;6.70;;
49812;SDS011;35706;52.100;5.056;2024-02-26T05:44:28;9.90;;;6.57;;
49812;SDS011;35706;52.100;5.056;2024-02-26T05:45:28;8.47;;;6.00;;
49812;SDS011;35706;52.100;5.056;2024-02-26T05:46:29;10.07;;;6.47;;
49812;SDS011;35706;52.100;5.056;2024-02-26T05:47:29;10.27;;;6.20;;
49812;SDS011;35706;52.100;5.056;2024-02-26T05:48:29;7.50;;;6.13;;
49812;SDS011;35706;52.100;5.056;2024-02-26T05:49:32;12.67;;;7.00;;
49812;SDS011;35706;52.100;5.056;2024-02-26T05:50:33;12.00;;;7.10;;
49812;SDS011;35706;52.100;5.056;2024-02-26T05:51:33;11.03;;;7.03;;
49812;SDS011;35706;52.100;5.056;2024-02-26T05:52:34;8.67;;;6.60;;
49812;SDS011;35706;52.100;5.056;2024-02-26T05:53:34;12.47;;;6.63;;
49812;SDS011;35706;52.100;5.056;2024-02-26T05:54:34;8.67;;;5.90;;
49812;SDS011;35706;52.100;5.056;2024-02-26T05:55:35;10.43;;;6.33;;
49812;SDS011;35706;52.100;5.056;2024-02-26T05:56:35;12.70;;;7.03;;
49812;SDS011;35706;52.100;5.056;2024-02-26T05:57:35;9.97;;;7.03;;
49812;SDS011;35706;52.100;5.056;2024-02-26T05:58:36;12.17;;;7.20;;
49812;SDS011;35706;52.100;5.056;2024-02-26T05:59:36;11.33;;;7.13;;
49812;SDS011;35706;52.100;5.056;2024-02-26T06:00:36;12.27;;;8.03;;
49812;SDS011;35706;52.100;5.056;2024-02-26T06:01:36;12.03;;;7.27;;
49812;SDS011;35706;52.100;5.056;2024-02-26T06:02:37;13.73;;;7.87;;
49812;SDS011;35706;52.100;5.056;2024-02-26T06:03:37;11.77;;;7.13;;
49812;SDS011;35706;52.100;5.056;2024-02-26T06:04:37;14.70;;;7.43;;